createdAt,value
2023-03-23T15:58:55.986Z,52.83
2023-03-23T16:01:43.612Z,52.76
2023-03-23T16:04:17.360Z,53.03
2023-03-23T16:06:46.848Z,52.54
2023-03-23T16:09:18.885Z,53.11
2023-03-23T16:11:48.006Z,52.81
2023-03-23T16:14:19.457Z,53.54
2023-03-23T16:16:52.226Z,53.30
2023-03-23T16:19:23.808Z,53.43
2023-03-23T16:21:52.811Z,53.68
2023-03-23T16:24:21.946Z,53.56
2023-03-23T16:26:50.942Z,53.54
2023-03-23T16:29:39.868Z,53.66
2023-03-23T16:32:09.255Z,53.77
2023-03-23T16:34:38.461Z,53.68
2023-03-23T16:37:08.324Z,54.82
2023-03-23T16:39:38.355Z,54.40
2023-03-23T16:42:07.547Z,54.23
2023-03-23T16:44:37.065Z,54.60
2023-03-23T16:47:06.261Z,54.71
2023-03-23T16:49:35.521Z,54.60
2023-03-23T16:52:05.622Z,54.83
2023-03-23T16:54:37.222Z,55.37
2023-03-23T16:57:06.464Z,55.42
2023-03-23T16:59:37.122Z,55.52
2023-03-23T17:02:06.312Z,55.41
2023-03-23T17:04:36.897Z,56.15
2023-03-23T17:07:07.864Z,55.53
2023-03-23T17:09:40.513Z,55.82
2023-03-23T17:12:10.538Z,55.79
2023-03-23T17:14:42.474Z,56.59
2023-03-23T17:17:14.351Z,56.61
2023-03-23T17:19:45.602Z,55.99
2023-03-23T17:22:14.564Z,56.10
2023-03-23T17:24:47.150Z,56.28
2023-03-23T17:27:19.734Z,56.74
2023-03-23T17:29:49.359Z,56.79
2023-03-23T17:32:21.170Z,57.35
2023-03-23T17:34:50.633Z,56.64
2023-03-23T17:37:20.600Z,56.82
2023-03-23T17:40:06.742Z,57.72
2023-03-23T17:42:39.551Z,56.87
2023-03-23T17:45:10.868Z,57.27
2023-03-23T17:47:41.190Z,57.39
2023-03-23T17:50:12.680Z,57.17
2023-03-23T17:52:42.754Z,57.39
2023-03-23T17:55:12.457Z,57.46
2023-03-23T17:57:42.181Z,58.63
2023-03-23T18:00:20.110Z,58.37
2023-03-23T18:02:49.714Z,58.02
2023-03-23T18:05:21.685Z,58.34
2023-03-23T18:07:50.790Z,58.92
2023-03-23T18:10:20.603Z,58.32
2023-03-23T18:12:55.826Z,59.01
2023-03-23T18:15:28.646Z,58.32
2023-03-23T18:17:59.370Z,58.30
2023-03-23T18:20:30.442Z,58.90
2023-03-23T18:23:03.134Z,59.25
2023-03-23T18:25:33.562Z,58.60
2023-03-23T18:28:05.547Z,58.80
2023-03-23T18:30:36.136Z,58.70
2023-03-23T18:33:05.678Z,59.16
2023-03-23T18:35:35.224Z,59.66
2023-03-23T18:38:04.487Z,59.54
2023-03-23T18:40:35.607Z,59.08
2023-03-23T18:43:06.491Z,58.58
2023-03-23T18:45:43.159Z,58.88
2023-03-23T18:48:15.134Z,59.60
2023-03-23T18:50:49.402Z,59.51
2023-03-23T18:53:20.830Z,59.82
2023-03-23T18:55:50.874Z,60.07
2023-03-23T18:58:23.917Z,59.04
2023-03-23T19:01:00.049Z,59.05
2023-03-23T19:03:30.486Z,59.01
2023-03-23T19:06:01.929Z,59.20
2023-03-23T19:08:31.915Z,59.28
2023-03-23T19:11:04.427Z,59.17
2023-03-23T19:13:36.885Z,59.05
2023-03-23T19:16:08.626Z,59.43
2023-03-23T19:18:43.741Z,59.01
2023-03-23T19:21:16.559Z,59.41
2023-03-23T19:23:52.283Z,58.87
2023-03-23T19:26:33.397Z,59.56
2023-03-23T19:32:00.373Z,59.28
2023-03-23T19:34:30.205Z,58.52
2023-03-23T19:37:05.749Z,59.41
2023-03-23T19:39:41.621Z,59.58
2023-03-23T19:42:17.133Z,58.92
2023-03-23T19:44:46.530Z,59.13
2023-03-23T19:47:18.067Z,59.39
2023-03-23T19:49:47.402Z,59.24
2023-03-23T19:52:21.346Z,59.10
2023-03-23T19:54:50.464Z,58.59
2023-03-23T19:57:22.543Z,59.56
2023-03-23T19:59:51.866Z,59.15
2023-03-23T20:02:21.033Z,59.52
2023-03-23T20:04:52.765Z,59.29
2023-03-23T20:07:26.528Z,59.12
2023-03-23T20:09:55.308Z,59.12
2023-03-23T20:12:24.199Z,58.75
2023-03-23T20:14:53.585Z,59.50
2023-03-23T20:17:22.786Z,59.46
2023-03-23T20:19:52.515Z,59.82
2023-03-23T20:22:24.416Z,59.79
2023-03-23T20:24:53.588Z,59.27
2023-03-23T20:27:22.976Z,59.39
2023-03-23T20:29:55.359Z,59.65
2023-03-23T20:32:24.575Z,59.92
2023-03-23T20:34:53.703Z,60.58
2023-03-23T20:37:23.642Z,60.37
2023-03-23T20:39:56.048Z,60.09
2023-03-23T20:42:25.475Z,60.34
2023-03-23T20:44:54.678Z,60.67
2023-03-23T20:47:23.732Z,60.85
2023-03-23T20:49:58.333Z,60.83
2023-03-23T20:52:27.672Z,60.78
2023-03-23T20:54:57.987Z,60.36
2023-03-23T20:57:28.300Z,61.29
2023-03-23T20:59:57.490Z,60.94
2023-03-23T21:02:29.108Z,60.91
2023-03-23T21:05:03.983Z,61.27
2023-03-23T21:07:33.122Z,60.62
2023-03-23T21:10:02.381Z,60.94
2023-03-23T21:12:31.400Z,61.17
2023-03-23T21:15:00.691Z,61.28
2023-03-23T21:17:29.822Z,61.19
2023-03-23T21:19:58.968Z,61.21
2023-03-23T21:22:28.496Z,61.87
2023-03-23T21:24:58.632Z,61.03
2023-03-23T21:27:27.679Z,61.63
2023-03-23T21:29:59.744Z,61.63
2023-03-23T21:32:28.888Z,61.52
2023-03-23T21:35:02.482Z,62.45
2023-03-23T21:37:32.232Z,62.19
2023-03-23T21:40:02.841Z,61.59
2023-03-23T21:42:31.811Z,62.15
2023-03-23T21:45:02.245Z,62.05
2023-03-23T21:47:31.692Z,62.36
2023-03-23T21:50:01.462Z,62.63
2023-03-23T21:52:32.287Z,62.26
2023-03-23T21:55:09.538Z,62.14
2023-03-23T21:57:40.753Z,61.79
2023-03-23T22:00:17.369Z,61.83
2023-03-23T22:02:46.349Z,62.06
2023-03-23T22:05:15.458Z,62.44
2023-03-23T22:07:47.339Z,62.63
2023-03-23T22:10:17.916Z,62.31
2023-03-23T22:12:49.340Z,62.22
2023-03-23T22:15:27.175Z,62.23
2023-03-23T22:17:56.298Z,63.06
2023-03-23T22:20:26.314Z,62.68
2023-03-23T22:22:55.160Z,63.07
2023-03-23T22:25:24.330Z,63.42
2023-03-23T22:27:54.838Z,63.22
2023-03-23T22:30:24.177Z,62.88
2023-03-23T22:32:54.315Z,63.02
2023-03-23T22:35:23.907Z,62.88
2023-03-23T22:37:53.178Z,62.82
2023-03-23T22:40:23.453Z,62.76
2023-03-23T22:42:52.373Z,63.34
2023-03-23T22:45:22.878Z,62.90
2023-03-23T22:47:51.908Z,63.38
2023-03-23T22:50:23.498Z,63.28
2023-03-23T22:52:52.400Z,63.95
2023-03-23T22:55:21.404Z,63.58
2023-03-23T22:57:50.295Z,63.43
2023-03-23T23:00:20.211Z,63.02
2023-03-23T23:02:49.341Z,63.68
2023-03-23T23:05:20.048Z,63.53
2023-03-23T23:07:49.094Z,64.24
2023-03-23T23:10:19.159Z,64.08
2023-03-23T23:12:48.201Z,63.27
2023-03-23T23:15:17.922Z,64.12
2023-03-23T23:17:46.895Z,63.58
2023-03-23T23:20:17.105Z,63.68
2023-03-23T23:22:46.622Z,63.71
2023-03-23T23:25:15.778Z,63.48
2023-03-23T23:27:45.558Z,63.80
2023-03-23T23:30:15.109Z,64.39
2023-03-23T23:32:47.038Z,63.54
2023-03-23T23:35:17.234Z,64.19
2023-03-23T23:37:46.623Z,63.84
2023-03-23T23:40:18.209Z,63.92
2023-03-23T23:42:49.032Z,63.68
2023-03-23T23:45:19.645Z,64.28
2023-03-23T23:47:48.554Z,63.39
2023-03-23T23:50:20.442Z,63.66
2023-03-23T23:52:49.529Z,63.56
2023-03-23T23:55:19.974Z,64.45
2023-03-23T23:57:49.732Z,63.71
